Palermo, Italy
Current Conditions -  °F | °C
As of 8:20 PM on Thursday 27 Nov 2014 (Local Time) from LICJ Reporting Station
Clear Clear  
Wind Chill: 63°   Ceiling: Unl
Heat Index: 63°   Visibility: 6mi
Dew Point: 55°   Wind: 3mph
Humidity: 77%   Direction: 120°ESE
Pressure: 29.88"   Gusts: NA
Location:  38.12°N, 13.36°E
Report Text: LICJ 271920Z 12003KT CAVOK 17/13 Q1012
Loading
Personal Weather Stations






























Interactive Weather Map New forecast layout! Learn more

10-Day Weather Forecast

Advertisements
Track Severe Weather on mobile